Portada
METAR-TAF:

METAR-TAF

Aeropuertos :

Aeropuerto Internacional Príncipe Said Ibrahim

Moroni, Comoras

latitud: 11-32S, longitud: 043-16E, altitud: 29 m

Observación

El informe se hizo hace 4 horas y 16 minutos, a las 18:00 UTC
Viento 10 kt del sur-sureste
Temperatura 27°C
Humedad 74%
Presión 1018 hPa
Visibilidad 10 km o más
Escasas nubes a una altura de 2000 ft

METAR: FMCH 191800Z 15010KT 9999 FEW020 27/22 Q1018 NOSIG

Hora: 01:16 (22:16 UTC)

Pronóstico

El informe se hizo hace 5 horas y 16 minutos, a las 17:00 UTC
Pronóstico válido del 19 a las 18 UTC al 20 a las 24 UTC
Viento 3 kt del este-sureste
Visibilidad 10 km o más
Escasas nubes a una altura de 2000 ft
Evolucionando progresivamente
del 20 a las 05 UTC al 20 a las 07 UTC
Viento 10 kt del sur
Evolucionando progresivamente
del 20 a las 16 UTC al 20 a las 18 UTC
Viento 3 kt del este

TAF: FMCH 191700Z 1918/2024 11003KT 9999 FEW020 BECMG 2005/2007 18010KT BECMG 2016/2018 09003KT

Observaciones y pronósticos meteorológicos de más de 4000 aeropuertos (mensajes METAR y TAF).

Los puntos amarillos y rojos representan las estaciones disponibles.

Ponga el ratón en el punto deseado para ver el nombre de la estación.

Haga clic para ver las observaciones y los pronósticos meteorológicos.

Para cambiar el mapa : haga clic en los botones verdes con una cruz de color negro para hacer un zoom, en el botón verde con un guión para alejar o en las flechas verdes para mapas adyacentes.


METAR-TAF: